Minturn, Arkansas
Current Conditions -  °F | °C
As of 4:55 PM on Friday 28 Nov 2014 (Local Time) from KARG Reporting Station
Clear Clear  
Wind Chill:   Ceiling: Unl
Heat Index:   Visibility: 10mi
Dew Point:   Wind: 15mph
Humidity: 57%   Direction: 180°S
Pressure: 30.07"   Gusts: NA
Location:  35.97°N, 91.03°W
Report Text: KARG 282255Z AUTO 18013KT 10SM CLR 09/01 A3007 RMK AO1
Loading
Personal Weather Stations






























Interactive Weather Map New forecast layout! Learn more

10-Day Weather Forecast

Advertisements
Track Severe Weather on mobile